Time;durP1;ratioP1;P1;durP2;ratioP2;P2;SDS_P1;SDS_P2;PMS_P1;PMS_P2;Temp;Humidity;BMP_temperature;BMP_pressure;BME280_temperature;BME280_humidity;BME280_pressure;Samples;Min_cycle;Max_cycle;Signal;HPM_P1;HPM_P2
2023/12/15 00:00:28;;;;;;;2.73;1.53;;;;;;;7.00;100.00;99023.81;5067459;28;20234;-60
2023/12/15 00:02:56;;;;;;;1.67;1.03;;;;;;;7.01;100.00;99029.69;5067848;28;20206;-60
2023/12/15 00:05:24;;;;;;;2.03;1.17;;;;;;;6.94;100.00;99038.59;5067056;28;20605;-60
2023/12/15 00:07:51;;;;;;;6.23;1.63;;;;;;;6.96;100.00;99045.22;5067313;28;20221;-60
2023/12/15 00:10:19;;;;;;;2.33;1.27;;;;;;;6.96;100.00;99047.78;5068466;28;20202;-60
2023/12/15 00:12:46;;;;;;;1.00;0.97;;;;;;;6.92;100.00;99048.88;5071504;28;20252;-60
2023/12/15 00:15:13;;;;;;;1.43;1.33;;;;;;;6.97;100.00;99038.41;5071238;28;20198;-60
2023/12/15 00:17:40;;;;;;;1.13;1.03;;;;;;;6.96;100.00;99046.97;5071198;28;20210;-60
2023/12/15 00:20:08;;;;;;;1.93;1.23;;;;;;;7.01;100.00;99047.50;5071221;28;20241;-61
2023/12/15 00:22:36;;;;;;;2.97;1.30;;;;;;;6.99;100.00;99041.69;5071145;28;20221;-61
2023/12/15 00:25:03;;;;;;;3.17;1.77;;;;;;;7.03;100.00;99041.41;5071278;28;20293;-61
2023/12/15 00:27:31;;;;;;;3.57;1.23;;;;;;;7.00;100.00;99033.97;5071272;28;20226;-61
2023/12/15 00:29:57;;;;;;;2.33;1.30;;;;;;;6.99;100.00;99032.34;5071105;28;20199;-61
2023/12/15 00:32:24;;;;;;;2.37;1.37;;;;;;;7.03;100.00;99043.94;5071056;28;20206;-61
2023/12/15 00:34:52;;;;;;;1.43;1.03;;;;;;;6.97;100.00;99039.22;5071304;28;20233;-61
2023/12/15 00:37:20;;;;;;;1.17;0.70;;;;;;;6.98;100.00;99035.81;5071172;28;20197;-61
2023/12/15 00:39:48;;;;;;;1.20;1.03;;;;;;;6.97;100.00;99029.06;5070954;28;20317;-61
2023/12/15 00:42:15;;;;;;;1.97;1.40;;;;;;;6.97;100.00;99038.41;5071158;28;20199;-61
2023/12/15 00:44:42;;;;;;;1.40;0.53;;;;;;;6.98;100.00;99045.97;5070946;28;20206;-61
2023/12/15 00:47:08;;;;;;;1.43;1.10;;;;;;;7.05;100.00;99050.69;5070906;28;20195;-61
2023/12/15 00:49:35;;;;;;;1.50;1.03;;;;;;;7.05;100.00;99053.22;5070593;28;20209;-61
2023/12/15 00:52:02;;;;;;;1.63;1.13;;;;;;;7.01;100.00;99053.41;5070614;28;20206;-61
2023/12/15 00:54:29;;;;;;;2.80;1.67;;;;;;;7.03;100.00;99051.56;5071057;28;20213;-60
2023/12/15 00:56:57;;;;;;;2.30;1.50;;;;;;;6.97;100.00;99054.47;5070607;28;20205;-60
2023/12/15 00:59:24;;;;;;;1.60;1.50;;;;;;;6.95;100.00;99066.47;5070618;28;20235;-61
2023/12/15 01:01:51;;;;;;;2.10;1.20;;;;;;;6.96;100.00;99068.09;5070563;28;20253;-61
2023/12/15 01:04:18;;;;;;;1.03;0.93;;;;;;;7.03;100.00;99079.53;5070425;28;20195;-61
2023/12/15 01:06:44;;;;;;;1.77;1.23;;;;;;;6.98;100.00;99078.16;5070400;28;20271;-60
2023/12/15 01:09:11;;;;;;;1.30;1.20;;;;;;;6.99;100.00;99083.19;5070356;28;20202;-60
2023/12/15 01:11:38;;;;;;;1.20;1.07;;;;;;;7.01;100.00;99088.16;5070557;28;20595;-60
2023/12/15 01:14:06;;;;;;;1.53;1.10;;;;;;;7.08;100.00;99091.19;5070611;28;20203;-60
2023/12/15 01:16:33;;;;;;;2.17;1.20;;;;;;;7.09;100.00;99090.28;5070058;28;20679;-60
2023/12/15 01:19:00;;;;;;;2.27;1.70;;;;;;;7.07;100.00;99092.06;5070180;28;20195;-60
2023/12/15 01:21:26;;;;;;;2.73;1.90;;;;;;;7.16;100.00;99087.28;5069554;28;20209;-60
2023/12/15 01:23:53;;;;;;;2.83;1.50;;;;;;;7.20;100.00;99093.00;5069701;28;20706;-60
2023/12/15 01:26:20;;;;;;;3.67;1.70;;;;;;;7.17;100.00;99095.72;5069641;28;20230;-60
2023/12/15 01:28:47;;;;;;;3.33;1.60;;;;;;;7.19;100.00;99093.94;5069909;28;20194;-60
2023/12/15 01:31:15;;;;;;;2.33;1.60;;;;;;;7.13;100.00;99099.38;5070056;28;20210;-60
2023/12/15 01:33:42;;;;;;;1.50;1.30;;;;;;;7.16;100.00;99104.28;5069880;28;20199;-60
2023/12/15 01:36:09;;;;;;;1.30;1.00;;;;;;;7.20;100.00;99110.81;5069902;28;20234;-60
2023/12/15 01:38:36;;;;;;;1.83;1.30;;;;;;;7.21;100.00;99102.25;5069835;28;20202;-60
2023/12/15 01:41:03;;;;;;;2.43;1.60;;;;;;;7.21;100.00;99102.25;5069868;28;20226;-60
2023/12/15 01:43:30;;;;;;;2.37;1.97;;;;;;;7.20;100.00;99108.28;5069631;28;20194;-60
2023/12/15 01:45:57;;;;;;;1.07;0.90;;;;;;;7.17;100.00;99116.06;5069685;28;20201;-59
2023/12/15 01:48:25;;;;;;;3.17;1.60;;;;;;;7.10;100.00;99124.94;5069421;28;20206;-60
2023/12/15 01:50:52;;;;;;;3.53;1.67;;;;;;;7.10;100.00;99124.94;5069690;28;20217;-60
2023/12/15 01:53:20;;;;;;;1.23;1.00;;;;;;;7.10;100.00;99135.13;5069535;28;20668;-60
2023/12/15 01:55:47;;;;;;;3.10;1.20;;;;;;;7.16;100.00;99134.78;5069818;28;20226;-60
2023/12/15 01:58:14;;;;;;;1.17;1.07;;;;;;;7.19;100.00;99137.16;5069452;28;20195;-59
2023/12/15 02:00:41;;;;;;;2.37;1.60;;;;;;;7.21;100.00;99141.25;5069320;28;20561;-60
2023/12/15 02:03:08;;;;;;;1.83;1.57;;;;;;;7.18;100.00;99141.41;5069526;28;20202;-59
2023/12/15 02:05:36;;;;;;;2.93;1.40;;;;;;;7.07;100.00;99142.91;5069084;28;20217;-60
2023/12/15 02:08:03;;;;;;;2.20;1.90;;;;;;;7.10;100.00;99145.28;5068912;28;20198;-59
2023/12/15 02:10:30;;;;;;;5.77;2.10;;;;;;;7.12;100.00;99153.66;5069028;28;20633;-59
2023/12/15 02:12:57;;;;;;;2.37;1.57;;;;;;;7.10;100.00;99150.38;5069264;28;20194;-60
2023/12/15 02:15:23;;;;;;;2.13;1.57;;;;;;;7.09;100.00;99156.38;5069052;28;20210;-60
2023/12/15 02:17:50;;;;;;;3.90;1.83;;;;;;;7.03;100.00;99160.88;5068946;28;20207;-60
2023/12/15 02:20:17;;;;;;;2.83;1.80;;;;;;;6.93;100.00;99162.31;5069087;28;20234;-60
2023/12/15 02:22:45;;;;;;;1.80;1.67;;;;;;;6.99;100.00;99163.72;5068912;28;20683;-60
2023/12/15 02:25:12;;;;;;;2.87;1.40;;;;;;;6.96;100.00;99168.97;5068941;28;20205;-60
2023/12/15 02:27:39;;;;;;;1.53;1.43;;;;;;;7.01;100.00;99177.97;5069289;28;20694;-60
2023/12/15 02:30:07;;;;;;;1.50;1.30;;;;;;;6.98;100.00;99178.16;5068877;28;20199;-60
2023/12/15 02:32:34;;;;;;;1.30;1.20;;;;;;;6.97;100.00;99179.03;5067374;28;20218;-61
2023/12/15 02:35:01;;;;;;;1.43;1.13;;;;;;;6.95;100.00;99183.41;5067223;28;20206;-60
2023/12/15 02:37:28;;;;;;;2.53;1.90;;;;;;;6.92;100.00;99188.66;5068207;28;20202;-60
2023/12/15 02:39:56;;;;;;;3.93;2.20;;;;;;;6.94;100.00;99186.81;5068879;28;20230;-60
2023/12/15 02:42:23;;;;;;;2.43;1.80;;;;;;;6.97;100.00;99191.75;5068447;28;20198;-60
2023/12/15 02:44:49;;;;;;;3.67;2.27;;;;;;;7.00;100.00;99186.47;5068574;28;20623;-60
2023/12/15 02:47:16;;;;;;;2.97;1.80;;;;;;;7.03;100.00;99181.22;5068644;28;20194;-60
2023/12/15 02:49:43;;;;;;;4.37;2.03;;;;;;;7.00;100.00;99185.66;5068689;28;20199;-60
2023/12/15 02:52:10;;;;;;;1.43;1.33;;;;;;;6.99;100.00;99189.94;5068719;28;20584;-60
2023/12/15 02:54:37;;;;;;;3.13;2.03;;;;;;;6.98;100.00;99190.00;5068463;28;20226;-60
2023/12/15 02:57:05;;;;;;;4.60;2.30;;;;;;;7.02;100.00;99174.50;5068406;28;20245;-60
2023/12/15 02:59:32;;;;;;;2.77;2.23;;;;;;;7.06;100.00;99179.41;5068336;28;20680;-60
2023/12/15 03:01:59;;;;;;;2.00;1.40;;;;;;;7.12;100.00;99186.69;5068374;28;20650;-61
2023/12/15 03:04:26;;;;;;;1.47;1.37;;;;;;;7.11;100.00;99190.16;5068651;28;20199;-60
2023/12/15 03:06:55;;;;;;;2.63;1.50;;;;;;;7.13;100.00;99195.97;5068176;28;20198;-60
2023/12/15 03:09:21;;;;;;;3.03;2.00;;;;;;;7.14;100.00;99198.44;5068256;28;20195;-60
2023/12/15 03:11:48;;;;;;;2.30;1.80;;;;;;;7.15;100.00;99204.31;5068353;28;20202;-60
2023/12/15 03:14:16;;;;;;;3.10;2.23;;;;;;;7.17;100.00;99203.34;5068269;28;20619;-60
2023/12/15 03:16:43;;;;;;;3.37;2.20;;;;;;;7.09;100.00;99202.13;5068250;28;20202;-60
2023/12/15 03:19:10;;;;;;;4.17;2.50;;;;;;;7.11;100.00;99207.97;5068165;28;20198;-60
2023/12/15 03:21:37;;;;;;;2.43;2.00;;;;;;;7.10;100.00;99209.69;5068060;28;20288;-61
2023/12/15 03:24:04;;;;;;;2.37;1.90;;;;;;;7.09;100.00;99212.31;5068325;28;20211;-61
2023/12/15 03:26:31;;;;;;;1.80;1.60;;;;;;;7.07;100.00;99221.72;5068103;28;20285;-61
2023/12/15 03:28:58;;;;;;;3.50;1.77;;;;;;;7.07;100.00;99221.72;5068309;28;20194;-60
2023/12/15 03:31:26;;;;;;;2.27;1.30;;;;;;;6.97;100.00;99227.31;5067936;28;20554;-60
2023/12/15 03:33:54;;;;;;;3.23;2.17;;;;;;;7.00;100.00;99236.50;5068060;28;20198;-60
2023/12/15 03:36:20;;;;;;;2.53;1.80;;;;;;;6.96;100.00;99246.03;5068388;28;20595;-60
2023/12/15 03:38:47;;;;;;;2.13;1.63;;;;;;;6.92;100.00;99244.56;5068121;28;20209;-60
2023/12/15 03:41:14;;;;;;;2.90;2.07;;;;;;;6.92;100.00;99249.66;5067972;28;20238;-60
2023/12/15 03:43:41;;;;;;;4.90;1.67;;;;;;;6.95;100.00;99256.28;5068428;28;20199;-60
2023/12/15 03:46:07;;;;;;;2.40;1.77;;;;;;;6.91;100.00;99258.16;5070308;28;20199;-60
2023/12/15 03:48:36;;;;;;;3.13;2.00;;;;;;;6.78;100.00;99258.03;5071611;28;20206;-60
2023/12/15 03:51:03;;;;;;;3.63;2.70;;;;;;;6.68;100.00;99261.13;5072219;28;20260;-60
2023/12/15 03:53:30;;;;;;;3.60;2.17;;;;;;;6.71;100.00;99258.41;5071841;28;20199;-60
2023/12/15 03:55:56;;;;;;;2.93;1.53;;;;;;;6.75;100.00;99270.88;5071783;28;20706;-60
2023/12/15 03:58:23;;;;;;;3.67;2.17;;;;;;;6.77;100.00;99280.97;5071589;28;20205;-60
2023/12/15 04:00:51;;;;;;;2.43;1.47;;;;;;;6.81;100.00;99282.44;5071552;28;20234;-60
2023/12/15 04:03:17;;;;;;;2.90;2.33;;;;;;;6.68;100.00;99291.63;5071752;28;20659;-59
2023/12/15 04:05:46;;;;;;;3.20;1.97;;;;;;;6.55;100.00;99287.19;5070761;28;20202;-60
2023/12/15 04:08:12;;;;;;;3.70;2.30;;;;;;;6.64;100.00;99300.31;5069789;28;20560;-60
2023/12/15 04:10:40;;;;;;;2.03;1.57;;;;;;;6.65;100.00;99302.75;5070660;28;20225;-60
2023/12/15 04:13:07;;;;;;;2.87;2.53;;;;;;;6.68;100.00;99301.78;5071737;28;20207;-60
2023/12/15 04:15:33;;;;;;;3.63;1.90;;;;;;;6.70;100.00;99299.97;5071315;28;20238;-60
2023/12/15 04:18:02;;;;;;;4.67;2.47;;;;;;;6.68;100.00;99296.69;5071353;28;20734;-60
2023/12/15 04:20:29;;;;;;;3.27;2.20;;;;;;;6.66;100.00;99288.31;5071433;28;20235;-60
2023/12/15 04:22:57;;;;;;;2.27;1.80;;;;;;;6.62;100.00;99299.56;5071447;28;20225;-60
2023/12/15 04:25:24;;;;;;;3.43;1.60;;;;;;;6.56;100.00;99298.97;5071249;28;20218;-60
2023/12/15 04:27:52;;;;;;;2.90;1.77;;;;;;;6.62;100.00;99312.25;5071035;28;20198;-59
2023/12/15 04:30:19;;;;;;;4.00;2.43;;;;;;;6.67;100.00;99315.38;5071396;28;20199;-60
2023/12/15 04:32:45;;;;;;;3.77;2.20;;;;;;;6.64;100.00;99321.44;5071639;28;20230;-60
2023/12/15 04:35:12;;;;;;;3.10;1.83;;;;;;;6.64;100.00;99330.78;5071438;28;20671;-60
2023/12/15 04:37:38;;;;;;;4.73;2.43;;;;;;;6.57;100.00;99323.50;5070940;28;20467;-60
2023/12/15 04:40:08;;;;;;;3.27;1.77;;;;;;;6.57;100.00;99328.56;5069640;28;20317;-60
2023/12/15 04:42:35;;;;;;;3.67;2.27;;;;;;;6.60;100.00;99324.22;5070798;28;20238;-60
2023/12/15 04:45:02;;;;;;;2.87;1.57;;;;;;;6.57;100.00;99335.34;5071093;28;20205;-59
2023/12/15 04:47:28;;;;;;;2.33;1.97;;;;;;;6.58;100.00;99337.84;5070634;28;20202;-60
2023/12/15 04:49:55;;;;;;;3.17;2.33;;;;;;;6.47;100.00;99345.19;5070707;28;20206;-60
2023/12/15 04:52:22;;;;;;;4.10;2.57;;;;;;;6.46;100.00;99348.63;5070803;28;20202;-60
2023/12/15 04:54:49;;;;;;;8.13;3.83;;;;;;;6.42;100.00;99341.22;5070785;28;20198;-60
2023/12/15 04:57:17;;;;;;;10.57;4.40;;;;;;;6.31;100.00;99339.22;5070701;28;20213;-60
2023/12/15 04:59:44;;;;;;;11.57;3.90;;;;;;;6.34;100.00;99354.31;5070983;28;20203;-60
2023/12/15 05:02:10;;;;;;;15.90;4.80;;;;;;;6.31;100.00;99354.47;5070655;28;20238;-60
2023/12/15 05:04:37;;;;;;;7.93;3.87;;;;;;;6.36;100.00;99362.69;5070477;28;20203;-60
2023/12/15 05:07:04;;;;;;;13.13;4.30;;;;;;;6.30;100.00;99363.81;5070571;28;20199;-60
2023/12/15 05:09:31;;;;;;;5.40;4.20;;;;;;;6.33;100.00;99362.84;5070682;28;20722;-60
2023/12/15 05:11:58;;;;;;;8.43;3.63;;;;;;;6.34;100.00;99365.31;5070827;28;20222;-60
2023/12/15 05:14:26;;;;;;;5.60;3.27;;;;;;;6.43;100.00;99364.03;5070280;28;20203;-60
2023/12/15 05:16:53;;;;;;;3.70;3.13;;;;;;;6.27;100.00;99363.16;5070273;28;20698;-60
2023/12/15 05:19:19;;;;;;;4.50;3.50;;;;;;;6.28;100.00;99373.25;5070196;28;20225;-60
2023/12/15 05:21:46;;;;;;;4.13;2.90;;;;;;;6.39;100.00;99367.59;5069921;28;20245;-60
2023/12/15 05:24:13;;;;;;;6.63;3.57;;;;;;;6.34;100.00;99369.53;5070096;28;20601;-60
2023/12/15 05:26:40;;;;;;;6.17;3.47;;;;;;;6.35;100.00;99371.19;5070083;28;20195;-60
2023/12/15 05:29:07;;;;;;;2.50;2.30;;;;;;;6.43;100.00;99374.19;5070033;28;20598;-60
2023/12/15 05:31:35;;;;;;;4.57;2.80;;;;;;;6.50;100.00;99370.41;5070096;28;20620;-60
2023/12/15 05:34:01;;;;;;;3.63;2.23;;;;;;;6.56;100.00;99377.72;5070085;28;20202;-60
2023/12/15 05:36:28;;;;;;;4.83;3.07;;;;;;;6.59;100.00;99379.28;5069780;28;20207;-60
2023/12/15 05:38:55;;;;;;;7.07;3.27;;;;;;;6.57;100.00;99381.94;5070157;28;20202;-60
2023/12/15 05:41:22;;;;;;;5.43;2.60;;;;;;;6.65;100.00;99388.31;5069526;28;20679;-60
2023/12/15 05:43:49;;;;;;;3.10;2.57;;;;;;;6.66;100.00;99385.72;5069669;28;20206;-60
2023/12/15 05:46:17;;;;;;;4.87;2.70;;;;;;;6.67;100.00;99394.16;5069636;28;20741;-60
2023/12/15 05:48:45;;;;;;;4.00;2.60;;;;;;;6.69;100.00;99410.13;5068694;28;20282;-60
2023/12/15 05:51:12;;;;;;;6.93;3.43;;;;;;;6.67;100.00;99411.94;5067860;28;20210;-60
2023/12/15 05:53:39;;;;;;;3.93;3.10;;;;;;;6.65;100.00;99409.47;5068746;28;20201;-59
2023/12/15 05:56:07;;;;;;;4.00;2.87;;;;;;;6.65;100.00;99418.81;5069386;28;20727;-60
2023/12/15 05:58:34;;;;;;;4.83;2.73;;;;;;;6.68;100.00;99423.72;5069686;28;20226;-60
2023/12/15 06:01:00;;;;;;;3.00;2.63;;;;;;;6.68;100.00;99418.66;5069518;28;20233;-60
2023/12/15 06:03:27;;;;;;;5.67;2.53;;;;;;;6.70;100.00;99427.03;5069313;28;20206;-60
2023/12/15 06:05:55;;;;;;;6.20;2.67;;;;;;;6.35;100.00;99438.03;5069293;28;20715;-60
2023/12/15 06:08:22;;;;;;;3.00;2.60;;;;;;;6.30;100.00;99444.25;5068920;28;20199;-60
2023/12/15 06:10:49;;;;;;;2.33;1.57;;;;;;;6.20;100.00;99450.69;5069237;28;20194;-60
2023/12/15 06:13:16;;;;;;;4.53;2.37;;;;;;;6.15;100.00;99455.16;5069356;28;20202;-60
2023/12/15 06:15:43;;;;;;;2.10;1.90;;;;;;;6.02;100.00;99460.81;5069326;28;20202;-60
2023/12/15 06:18:09;;;;;;;5.07;2.27;;;;;;;5.87;100.00;99469.09;5069121;28;20202;-60
2023/12/15 06:20:36;;;;;;;3.30;1.93;;;;;;;5.75;100.00;99478.09;5069371;28;20207;-60
2023/12/15 06:23:04;;;;;;;3.37;2.43;;;;;;;5.72;100.00;99483.31;5068813;28;20206;-60
2023/12/15 06:25:31;;;;;;;2.17;1.73;;;;;;;5.70;100.00;99485.09;5068917;28;20195;-60
2023/12/15 06:27:58;;;;;;;2.20;1.97;;;;;;;5.53;100.00;99478.28;5069082;28;20213;-60
2023/12/15 06:30:25;;;;;;;2.10;1.67;;;;;;;5.51;100.00;99482.59;5068818;28;20195;-60
2023/12/15 06:32:51;;;;;;;2.73;2.20;;;;;;;5.42;100.00;99493.16;5068628;28;20225;-60
2023/12/15 06:35:18;;;;;;;3.33;1.87;;;;;;;5.30;100.00;99504.66;5068971;28;20211;-60
2023/12/15 06:37:45;;;;;;;1.53;1.10;;;;;;;5.36;100.00;99501.03;5069042;28;20214;-60
2023/12/15 06:40:14;;;;;;;2.23;1.53;;;;;;;5.11;100.00;99509.69;5069020;28;20218;-60
2023/12/15 06:42:40;;;;;;;1.43;1.17;;;;;;;5.20;100.00;99516.88;5068782;28;20261;-60
2023/12/15 06:45:08;;;;;;;0.93;0.93;;;;;;;5.08;100.00;99517.44;5068769;28;20208;-60
2023/12/15 06:47:37;;;;;;;2.07;1.43;;;;;;;5.08;100.00;99522.50;5068541;28;20202;-60
2023/12/15 06:50:06;;;;;;;1.57;1.47;;;;;;;5.01;100.00;99530.44;5068520;28;20591;-60
2023/12/15 06:52:33;;;;;;;1.63;1.23;;;;;;;4.99;100.00;99525.44;5068702;28;20283;-60
2023/12/15 06:55:01;;;;;;;0.80;0.80;;;;;;;4.94;100.00;99532.38;5068758;28;20203;-60
2023/12/15 06:57:29;;;;;;;2.37;1.63;;;;;;;4.87;100.00;99536.06;5068627;28;20234;-60
2023/12/15 06:59:56;;;;;;;1.50;1.40;;;;;;;4.71;100.00;99544.31;5068474;28;20199;-60
2023/12/15 07:02:23;;;;;;;2.00;1.90;;;;;;;4.73;100.00;99547.59;5068351;28;20230;-59
2023/12/15 07:04:50;;;;;;;2.67;2.07;;;;;;;4.51;100.00;99547.66;5068402;28;20594;-60
2023/12/15 07:07:16;;;;;;;1.50;1.30;;;;;;;4.41;100.00;99546.34;5068295;28;20289;-60
2023/12/15 07:09:43;;;;;;;3.03;1.13;;;;;;;4.44;100.00;99558.06;5068570;28;20205;-60
2023/12/15 07:12:10;;;;;;;14.27;8.13;;;;;;;4.41;100.00;99555.66;5068409;28;20209;-60
2023/12/15 07:14:38;;;;;;;3.23;2.23;;;;;;;4.39;100.00;99554.88;5068259;28;20202;-60
2023/12/15 07:17:05;;;;;;;1.97;1.80;;;;;;;4.41;100.00;99560.72;5068225;28;20203;-60
2023/12/15 07:19:32;;;;;;;1.20;1.10;;;;;;;4.39;100.00;99567.53;5068232;28;20197;-60
2023/12/15 07:21:59;;;;;;;2.23;1.60;;;;;;;4.36;100.00;99565.13;5071895;28;20615;-60
2023/12/15 07:24:26;;;;;;;2.27;1.40;;;;;;;4.28;100.00;99563.75;5072625;28;20631;-60
2023/12/15 07:26:53;;;;;;;2.73;1.73;;;;;;;4.14;100.00;99565.97;5072238;28;20202;-60
2023/12/15 07:29:21;;;;;;;1.73;1.63;;;;;;;4.23;100.00;99575.75;5072492;28;20202;-60
2023/12/15 07:31:50;;;;;;;1.93;1.33;;;;;;;4.23;100.00;99587.56;5072696;28;20291;-60
2023/12/15 07:34:17;;;;;;;1.70;1.13;;;;;;;4.24;100.00;99595.09;5072296;28;20260;-60
2023/12/15 07:36:44;;;;;;;2.23;1.50;;;;;;;4.18;100.00;99597.88;5072404;28;20300;-60
2023/12/15 07:39:11;;;;;;;1.30;1.20;;;;;;;4.18;100.00;99597.03;5072101;28;20225;-60
2023/12/15 07:41:39;;;;;;;2.83;1.60;;;;;;;4.26;100.00;99597.59;5072061;28;20234;-60
2023/12/15 07:44:06;;;;;;;2.20;2.00;;;;;;;4.08;100.00;99589.81;5072121;28;20417;-60
2023/12/15 07:46:33;;;;;;;2.47;1.50;;;;;;;4.15;100.00;99590.38;5071923;28;20668;-60
2023/12/15 07:49:01;;;;;;;2.87;1.57;;;;;;;4.21;100.00;99595.22;5071906;28;20206;-60
2023/12/15 07:51:28;;;;;;;3.80;1.87;;;;;;;4.09;100.00;99590.63;5071870;28;20214;-60
2023/12/15 07:53:55;;;;;;;2.37;1.17;;;;;;;4.28;100.00;99601.72;5072089;28;20203;-60
2023/12/15 07:56:23;;;;;;;1.00;0.87;;;;;;;4.29;100.00;99608.41;5071770;28;20214;-60
2023/12/15 07:58:50;;;;;;;2.80;1.87;;;;;;;4.14;100.00;99603.13;5071873;28;20238;-60
2023/12/15 08:01:18;;;;;;;2.33;1.30;;;;;;;4.15;100.00;99605.56;5071533;28;20209;-60
2023/12/15 08:03:44;;;;;;;3.27;1.60;;;;;;;4.15;100.00;99617.41;5071990;28;20339;-60
2023/12/15 08:06:14;;;;;;;1.70;1.60;;;;;;;4.08;100.00;99619.34;5071406;28;20206;-60
2023/12/15 08:08:41;;;;;;;4.07;2.13;;;;;;;4.15;100.00;99633.41;5071742;28;20240;-60
2023/12/15 08:11:09;;;;;;;2.33;1.80;;;;;;;4.17;100.00;99626.59;5071720;28;20219;-60
2023/12/15 08:13:36;;;;;;;2.33;1.50;;;;;;;4.19;100.00;99622.31;5071509;28;20683;-60
2023/12/15 08:16:04;;;;;;;1.83;1.23;;;;;;;4.16;100.00;99635.06;5071633;28;20223;-60
2023/12/15 08:18:31;;;;;;;1.17;1.07;;;;;;;4.07;100.00;99632.88;5071561;28;20353;-60
2023/12/15 08:20:57;;;;;;;2.77;1.40;;;;;;;4.04;100.00;99643.09;5071653;28;20217;-59
2023/12/15 08:23:26;;;;;;;4.07;1.63;;;;;;;3.97;100.00;99641.69;5071153;28;20741;-60
2023/12/15 08:25:53;;;;;;;5.17;1.73;;;;;;;4.14;100.00;99649.47;5071205;28;20198;-60
2023/12/15 08:28:20;;;;;;;5.90;2.10;;;;;;;4.07;100.00;99648.03;5070981;28;20213;-60
2023/12/15 08:30:47;;;;;;;3.23;1.33;;;;;;;4.17;100.00;99644.31;5070738;28;20198;-60
2023/12/15 08:33:14;;;;;;;1.53;1.43;;;;;;;4.03;100.00;99646.50;5071094;28;20221;-60
2023/12/15 08:35:41;;;;;;;1.43;1.33;;;;;;;4.02;100.00;99644.88;5070931;28;20210;-60
2023/12/15 08:38:09;;;;;;;2.87;1.47;;;;;;;4.05;100.00;99639.69;5070834;28;20206;-60
2023/12/15 08:40:37;;;;;;;2.30;1.60;;;;;;;4.06;100.00;99652.28;5071149;28;20206;-60
2023/12/15 08:43:04;;;;;;;1.67;1.23;;;;;;;4.17;100.00;99654.44;5070838;28;20258;-60
2023/12/15 08:45:31;;;;;;;1.90;1.37;;;;;;;4.17;100.00;99654.44;5070735;28;20199;-60
2023/12/15 08:47:58;;;;;;;3.00;1.87;;;;;;;4.23;100.00;99664.31;5071049;28;20199;-60
2023/12/15 08:50:25;;;;;;;1.67;1.13;;;;;;;4.13;100.00;99678.22;5070632;28;20287;-60
2023/12/15 08:52:52;;;;;;;2.87;1.87;;;;;;;4.15;100.00;99675.59;5070670;28;20199;-60
2023/12/15 08:55:19;;;;;;;2.20;1.57;;;;;;;4.20;100.00;99678.81;5070401;28;20219;-60
2023/12/15 08:57:47;;;;;;;2.53;1.50;;;;;;;4.24;100.00;99680.31;5071013;28;20198;-59
2023/12/15 09:00:14;;;;;;;2.00;1.60;;;;;;;4.16;100.00;99685.69;5070787;28;20202;-59
2023/12/15 09:02:41;;;;;;;1.83;1.73;;;;;;;4.15;100.00;99690.78;5069460;28;20325;-60
2023/12/15 09:05:10;;;;;;;1.33;1.23;;;;;;;4.19;100.00;99695.69;5068872;28;20214;-59
2023/12/15 09:07:37;;;;;;;0.73;0.73;;;;;;;4.13;100.00;99688.34;5069244;28;20198;-59
2023/12/15 09:10:05;;;;;;;4.23;2.17;;;;;;;4.21;100.00;99701.50;5070392;28;20622;-59
2023/12/15 09:12:31;;;;;;;2.53;1.60;;;;;;;4.28;100.00;99702.94;5070282;28;20226;-59
2023/12/15 09:14:59;;;;;;;1.40;1.30;;;;;;;4.14;100.00;99705.16;5070441;28;20202;-59
2023/12/15 09:17:26;;;;;;;2.53;1.67;;;;;;;4.23;100.00;99704.81;5070030;28;20191;-59
2023/12/15 09:19:53;;;;;;;1.43;1.27;;;;;;;4.18;100.00;99709.22;5070291;28;20226;-59
2023/12/15 09:22:20;;;;;;;1.10;1.03;;;;;;;4.07;100.00;99713.81;5070489;28;20358;-59
2023/12/15 09:24:47;;;;;;;1.90;1.40;;;;;;;4.10;100.00;99718.78;5070143;28;20206;-59
2023/12/15 09:27:13;;;;;;;1.63;1.07;;;;;;;4.02;100.00;99720.78;5070391;28;20199;-59
2023/12/15 09:29:40;;;;;;;2.13;1.33;;;;;;;4.11;100.00;99730.56;5070130;28;20226;-59
2023/12/15 09:32:08;;;;;;;2.30;1.60;;;;;;;4.02;100.00;99723.31;5069850;28;20702;-61
2023/12/15 09:34:35;;;;;;;2.30;2.00;;;;;;;4.04;100.00;99724.06;5069740;28;20706;-60
2023/12/15 09:37:02;;;;;;;2.83;1.80;;;;;;;4.11;100.00;99730.56;5070213;28;20199;-60
2023/12/15 09:39:29;;;;;;;1.50;1.40;;;;;;;4.06;100.00;99727.38;5069890;28;20283;-60
2023/12/15 09:41:56;;;;;;;2.70;1.73;;;;;;;4.04;100.00;99735.03;5069781;28;20619;-60
2023/12/15 09:44:23;;;;;;;4.03;1.70;;;;;;;4.03;100.00;99735.88;5069040;28;20202;-59
2023/12/15 09:46:50;;;;;;;1.60;1.30;;;;;;;4.13;100.00;99736.41;5069873;28;20211;-60
2023/12/15 09:49:20;;;;;;;2.33;1.53;;;;;;;4.13;100.00;99736.41;5069542;28;20206;-59
2023/12/15 09:51:49;;;;;;;3.30;2.10;;;;;;;4.21;100.00;99744.53;5070167;28;20202;-60
2023/12/15 09:54:16;;;;;;;1.27;1.17;;;;;;;4.13;100.00;99744.00;5069525;28;20915;-60
2023/12/15 09:56:43;;;;;;;1.40;1.20;;;;;;;4.23;100.00;99747.84;5069364;28;20199;-60
2023/12/15 09:59:11;;;;;;;3.27;1.80;;;;;;;4.15;100.00;99741.41;5069506;28;20199;-60
2023/12/15 10:01:38;;;;;;;4.03;2.00;;;;;;;4.25;100.00;99743.56;5069569;28;20206;-60
2023/12/15 10:04:05;;;;;;;1.90;1.70;;;;;;;4.16;100.00;99738.84;5069189;28;20694;-60
2023/12/15 10:06:35;;;;;;;2.87;2.30;;;;;;;4.21;100.00;99746.25;5069145;28;20637;-59
2023/12/15 10:09:02;;;;;;;1.93;1.70;;;;;;;4.23;100.00;99752.09;5069190;28;20638;-60
2023/12/15 10:11:33;;;;;;;1.63;1.23;;;;;;;4.12;100.00;99752.47;5069284;28;20363;-60
2023/12/15 10:14:04;;;;;;;1.37;1.23;;;;;;;4.16;100.00;99746.44;5069187;28;20671;-60
2023/12/15 10:16:31;;;;;;;0.87;0.80;;;;;;;4.24;100.00;99752.00;5069182;28;20234;-60
2023/12/15 10:18:58;;;;;;;1.43;0.90;;;;;;;4.19;100.00;99750.53;5068993;28;20210;-60
2023/12/15 10:21:25;;;;;;;1.77;1.20;;;;;;;4.16;100.00;99756.56;5068999;28;20199;-60
2023/12/15 10:23:53;;;;;;;1.50;1.30;;;;;;;4.07;100.00;99760.22;5069199;28;20624;-60
2023/12/15 10:26:20;;;;;;;2.77;1.57;;;;;;;4.08;100.00;99755.97;5068581;28;20229;-60
2023/12/15 10:28:47;;;;;;;3.23;2.43;;;;;;;3.88;100.00;99769.31;5069055;28;20233;-59
2023/12/15 10:31:14;;;;;;;1.43;1.17;;;;;;;3.78;100.00;99761.22;5068960;28;20203;-59
2023/12/15 10:33:42;;;;;;;1.70;1.50;;;;;;;3.73;100.00;99754.66;5068825;28;20202;-59
2023/12/15 10:36:13;;;;;;;2.20;1.20;;;;;;;3.79;100.00;99755.28;5068605;28;20225;-60
2023/12/15 10:38:40;;;;;;;1.67;1.03;;;;;;;3.78;100.00;99758.69;5068906;28;20197;-60
2023/12/15 10:41:11;;;;;;;0.50;0.33;;;;;;;3.78;100.00;99766.28;5068579;28;20203;-60
2023/12/15 10:43:39;;;;;;;1.10;1.00;;;;;;;3.69;100.00;99769.09;5068916;28;20238;-59
2023/12/15 10:46:09;;;;;;;0.97;0.93;;;;;;;3.63;100.00;99771.81;5069040;28;20206;-59
2023/12/15 10:48:39;;;;;;;1.30;0.93;;;;;;;3.62;100.00;99787.88;5068684;28;21173;-59
2023/12/15 10:51:08;;;;;;;1.30;1.20;;;;;;;3.63;100.00;99787.00;5068585;28;20700;-60
2023/12/15 10:53:36;;;;;;;1.30;0.97;;;;;;;3.69;100.00;99796.09;5068540;28;20730;-59
2023/12/15 10:56:03;;;;;;;0.57;0.57;;;;;;;3.65;100.00;99795.38;5068443;28;20210;-60
2023/12/15 10:58:31;;;;;;;2.23;1.07;;;;;;;3.58;100.00;99799.81;5068593;28;20291;-60
2023/12/15 11:00:59;;;;;;;2.20;1.50;;;;;;;3.60;100.00;99800.56;5068413;28;20213;-60
2023/12/15 11:03:27;;;;;;;1.83;1.07;;;;;;;3.58;100.00;99806.56;5068639;28;20234;-60
2023/12/15 11:05:54;;;;;;;0.80;0.77;;;;;;;3.70;100.00;99811.22;5068371;28;20194;-59
2023/12/15 11:08:21;;;;;;;1.27;1.03;;;;;;;3.55;100.00;99809.16;5068218;28;20209;-59
2023/12/15 11:10:51;;;;;;;0.70;0.60;;;;;;;3.61;100.00;99814.06;5068356;28;20241;-59
2023/12/15 11:13:50;;;;;;;0.77;0.73;;;;;;;3.61;100.00;99812.34;5068464;28;20252;-60
2023/12/15 11:16:18;;;;;;;1.30;1.20;;;;;;;3.65;100.00;99813.06;5068474;28;20597;-59
2023/12/15 11:18:45;;;;;;;3.13;1.43;;;;;;;3.57;100.00;99815.00;5068588;28;20197;-59
2023/12/15 11:21:12;;;;;;;0.97;0.83;;;;;;;3.49;100.00;99814.41;5068292;28;20213;-59
2023/12/15 11:23:50;;;;;;;1.07;1.03;;;;;;;3.58;100.00;99821.72;5068194;28;20233;-59
2023/12/15 11:26:22;;;;;;;1.27;1.07;;;;;;;3.54;100.00;99820.16;5068251;28;20581;-60
2023/12/15 11:28:49;;;;;;;2.47;1.17;;;;;;;3.55;100.00;99824.34;5068511;28;20240;-60
2023/12/15 11:31:26;;;;;;;1.60;1.27;;;;;;;3.52;100.00;99821.91;5068134;28;20256;-60
2023/12/15 11:33:53;;;;;;;1.37;0.90;;;;;;;3.51;100.00;99825.31;5068136;28;20726;-59